createdAt,value
2019-04-28T00:01:23.071Z,99517.34
2019-04-28T00:03:51.612Z,99517.67
2019-04-28T00:06:21.122Z,99513.92
2019-04-28T00:08:48.988Z,99517.55
2019-04-28T00:11:16.809Z,99510.81
2019-04-28T00:13:47.383Z,99517.73
2019-04-28T00:16:15.148Z,99516.08
2019-04-28T00:18:44.297Z,99518.36
2019-04-28T00:21:28.580Z,99513.56
2019-04-28T00:24:03.272Z,99513.24
2019-04-28T00:26:42.522Z,99512.60
2019-04-28T00:29:11.199Z,99511.61
2019-04-28T00:31:41.365Z,99488.45
2019-04-28T00:34:11.470Z,99506.69
2019-04-28T00:36:41.210Z,99511.44
2019-04-28T00:39:11.091Z,99509.97
2019-04-28T00:41:39.257Z,99515.70
2019-04-28T00:44:06.979Z,99518.66
2019-04-28T00:46:36.260Z,99519.63
2019-04-28T00:49:05.126Z,99522.75
2019-04-28T00:51:33.634Z,99519.31
2019-04-28T00:54:01.348Z,99521.94
2019-04-28T00:56:29.108Z,99521.28
2019-04-28T00:58:56.842Z,99524.88
2019-04-28T01:01:32.399Z,99521.42
2019-04-28T01:04:01.959Z,99527.80
2019-04-28T01:06:32.010Z,99521.74
2019-04-28T01:08:59.449Z,99522.56
2019-04-28T01:11:27.284Z,99520.93
2019-04-28T01:13:55.113Z,99513.54
2019-04-28T01:16:32.956Z,99520.91
2019-04-28T01:19:06.211Z,99519.91
2019-04-28T01:21:52.244Z,99517.13
2019-04-28T01:24:20.152Z,99522.34
2019-04-28T01:26:50.837Z,99520.22
2019-04-28T01:29:19.514Z,99525.60
2019-04-28T01:31:56.386Z,99525.44
2019-04-28T01:34:24.194Z,99525.77
2019-04-28T01:36:52.167Z,99520.84
2019-04-28T01:39:23.683Z,99520.67
2019-04-28T01:41:51.580Z,99521.67
2019-04-28T01:44:19.940Z,99522.63
2019-04-28T01:46:49.505Z,99525.25
2019-04-28T01:49:19.442Z,99523.12
2019-04-28T01:52:00.520Z,99529.66
2019-04-28T01:54:30.179Z,99522.95
2019-04-28T01:56:59.234Z,99529.67
2019-04-28T01:59:27.819Z,99526.38
2019-04-28T02:01:55.612Z,99531.77
2019-04-28T02:04:23.380Z,99531.14
2019-04-28T02:06:51.153Z,99532.93
2019-04-28T02:09:19.516Z,99531.14
2019-04-28T02:11:49.647Z,99540.34
2019-04-28T02:14:17.157Z,99533.44
2019-04-28T02:16:44.907Z,99538.05
2019-04-28T02:19:12.676Z,99533.95
2019-04-28T02:22:04.642Z,99541.50
2019-04-28T02:24:33.938Z,99544.31
2019-04-28T02:27:01.683Z,99539.04
2019-04-28T02:29:30.116Z,99542.00
2019-04-28T02:32:01.904Z,99542.14
2019-04-28T02:34:31.219Z,99544.59
2019-04-28T02:37:01.023Z,99539.01
2019-04-28T02:39:27.773Z,99535.73
2019-04-28T02:41:55.713Z,99534.42
2019-04-28T02:44:23.766Z,99539.98
2019-04-28T02:46:51.702Z,99541.11
2019-04-28T02:49:25.080Z,99542.27
2019-04-28T02:52:20.664Z,99539.34
2019-04-28T02:54:50.753Z,99539.50
2019-04-28T02:57:20.618Z,99545.39
2019-04-28T02:59:50.564Z,99539.30
2019-04-28T03:02:22.547Z,99546.99
2019-04-28T03:04:50.856Z,99545.50
2019-04-28T03:07:21.786Z,99553.86
2019-04-28T03:09:51.744Z,99552.00
2019-04-28T03:12:21.317Z,99556.43
2019-04-28T03:14:50.586Z,99552.16
2019-04-28T03:17:17.660Z,99554.42
2019-04-28T03:19:45.458Z,99553.59
2019-04-28T03:22:13.348Z,99554.88
2019-04-28T03:24:42.675Z,99556.50
2019-04-28T03:27:35.964Z,99564.33
2019-04-28T03:30:23.152Z,99558.09
2019-04-28T03:32:59.076Z,99553.31
2019-04-28T03:35:23.022Z,99563.93
2019-04-28T03:37:51.330Z,99566.24
2019-04-28T03:40:21.191Z,99562.13
2019-04-28T03:42:51.373Z,99565.63
2019-04-28T03:45:24.806Z,99564.03
2019-04-28T03:47:52.562Z,99569.02
2019-04-28T03:50:20.371Z,99570.50
2019-04-28T03:52:50.997Z,99570.62
2019-04-28T03:55:17.912Z,99568.52
2019-04-28T03:57:46.131Z,99571.75
2019-04-28T04:00:14.306Z,99569.93
2019-04-28T04:03:06.811Z,99573.06
2019-04-28T04:05:34.543Z,99572.41
2019-04-28T04:08:02.295Z,99564.39
2019-04-28T04:10:37.359Z,99569.67
2019-04-28T04:13:25.917Z,99571.34
2019-04-28T04:16:22.351Z,99576.59
2019-04-28T04:18:53.785Z,99575.13
2019-04-28T04:21:21.715Z,99576.14
2019-04-28T04:23:51.008Z,99573.22
2019-04-28T04:26:21.424Z,99575.88
2019-04-28T04:28:51.476Z,99577.38
2019-04-28T04:31:20.013Z,99578.86
2019-04-28T04:33:50.658Z,99579.09
2019-04-28T04:36:20.815Z,99579.94
2019-04-28T04:38:50.947Z,99581.56
2019-04-28T04:41:18.035Z,99582.56
2019-04-28T04:43:45.824Z,99588.13
2019-04-28T04:46:22.724Z,99590.61
2019-04-28T04:48:51.110Z,99587.36
2019-04-28T04:51:21.362Z,99590.14
2019-04-28T04:53:51.116Z,99591.47
2019-04-28T04:56:21.135Z,99590.52
2019-04-28T04:58:50.283Z,99594.12
2019-04-28T05:01:42.888Z,99598.77
2019-04-28T05:04:23.226Z,99599.92
2019-04-28T05:06:50.972Z,99601.10
2019-04-28T05:09:19.629Z,99600.13
2019-04-28T05:11:49.783Z,99599.45
2019-04-28T05:14:19.826Z,99597.66
2019-04-28T05:16:49.248Z,99598.98
2019-04-28T05:19:17.443Z,99604.76
2019-04-28T05:21:45.370Z,99604.66
2019-04-28T05:24:32.816Z,99608.32
2019-04-28T05:27:00.594Z,99603.94
2019-04-28T05:29:28.378Z,99605.45
2019-04-28T05:31:59.887Z,99606.80
2019-04-28T05:34:25.759Z,99610.74
2019-04-28T05:36:53.541Z,99614.51
2019-04-28T05:39:21.344Z,99609.55
2019-04-28T05:41:50.457Z,99614.47
2019-04-28T05:44:20.107Z,99614.86
2019-04-28T05:46:50.374Z,99614.91
2019-04-28T05:49:40.386Z,99616.73
2019-04-28T05:53:03.188Z,99641.27
2019-04-28T05:55:56.106Z,99623.27
2019-04-28T05:58:43.480Z,99612.21
2019-04-28T06:01:30.556Z,99610.97
2019-04-28T06:03:58.369Z,99616.27
2019-04-28T06:06:30.304Z,99618.80
2019-04-28T06:09:12.290Z,99618.78
2019-04-28T06:11:40.856Z,99619.34
2019-04-28T06:14:09.990Z,99617.59
2019-04-28T06:16:37.924Z,99619.13
2019-04-28T06:19:05.633Z,99629.68
2019-04-28T06:21:38.480Z,99627.13
2019-04-28T06:24:06.202Z,99632.57
2019-04-28T06:26:33.989Z,99630.18
2019-04-28T06:29:02.222Z,99630.92
2019-04-28T06:32:00.401Z,99626.13
2019-04-28T06:34:28.171Z,99632.66
2019-04-28T06:36:55.935Z,99643.17
2019-04-28T06:39:23.719Z,99637.55
2019-04-28T06:41:51.515Z,99639.33
2019-04-28T06:44:19.210Z,99637.67
2019-04-28T06:46:47.053Z,99637.64
2019-04-28T06:49:14.845Z,99644.67
2019-04-28T06:51:42.632Z,99644.02
2019-04-28T06:54:10.395Z,99650.17
2019-04-28T06:56:38.148Z,99653.27
2019-04-28T06:59:05.876Z,99654.75
2019-04-28T07:01:33.691Z,99651.42
2019-04-28T07:04:01.427Z,99652.50
2019-04-28T07:06:29.260Z,99653.86
2019-04-28T07:08:57.022Z,99653.67
2019-04-28T07:11:24.810Z,99652.47
2019-04-28T07:13:52.557Z,99650.61
2019-04-28T07:16:20.520Z,99652.05
2019-04-28T07:18:48.281Z,99656.18
2019-04-28T07:21:36.456Z,99657.66
2019-04-28T07:24:04.247Z,99654.88
2019-04-28T07:26:32.053Z,99659.38
2019-04-28T07:28:59.857Z,99658.36
2019-04-28T07:31:27.708Z,99661.83
2019-04-28T07:33:56.619Z,99658.59
2019-04-28T07:36:24.452Z,99664.84
2019-04-28T07:38:53.279Z,99667.27
2019-04-28T07:41:21.035Z,99674.86
2019-04-28T07:43:48.807Z,99672.54
2019-04-28T07:46:16.644Z,99676.98
2019-04-28T07:48:44.421Z,99676.69
2019-04-28T07:51:13.646Z,99669.16
2019-04-28T07:53:48.582Z,99677.87
2019-04-28T07:56:16.302Z,99672.27
2019-04-28T07:58:46.359Z,99686.52
2019-04-28T08:01:14.234Z,99691.02
2019-04-28T08:03:49.194Z,99693.03
2019-04-28T08:06:11.729Z,99692.49
2019-04-28T08:08:39.507Z,99689.13
2019-04-28T08:11:08.205Z,99688.11
2019-04-28T08:13:35.944Z,99719.48
2019-04-28T08:16:03.735Z,99659.27
2019-04-28T08:18:31.692Z,99708.23
2019-04-28T08:20:59.553Z,99708.79
2019-04-28T08:23:27.288Z,99658.45
2019-04-28T08:25:55.120Z,99662.86
2019-04-28T08:28:22.971Z,99673.94
2019-04-28T08:30:52.554Z,99673.82
2019-04-28T08:33:42.709Z,99674.27
2019-04-28T08:36:11.902Z,99675.05
2019-04-28T08:38:39.656Z,99678.72
2019-04-28T08:41:08.594Z,99687.71
2019-04-28T08:43:36.506Z,99686.34
2019-04-28T08:46:04.356Z,99681.07
2019-04-28T08:48:33.328Z,99681.98
2019-04-28T08:51:01.122Z,99676.68
2019-04-28T08:54:09.065Z,99685.13
2019-04-28T08:56:42.798Z,99676.53
2019-04-28T08:59:13.748Z,99685.30
2019-04-28T09:01:41.482Z,99693.34
2019-04-28T09:04:15.641Z,99681.54
2019-04-28T09:06:39.448Z,99676.95
2019-04-28T09:09:13.085Z,99679.27
2019-04-28T09:11:40.822Z,99695.91
2019-04-28T09:14:08.611Z,99673.38
2019-04-28T09:16:36.791Z,99691.38
2019-04-28T09:19:06.047Z,99658.79
2019-04-28T09:21:33.762Z,99644.91
2019-04-28T09:24:05.532Z,99662.95
2019-04-28T09:26:33.312Z,99673.80
2019-04-28T09:29:01.463Z,99677.53
2019-04-28T09:31:29.239Z,99678.45
2019-04-28T09:33:57.007Z,99683.09
2019-04-28T09:36:27.627Z,99687.31
2019-04-28T09:38:56.092Z,99697.55
2019-04-28T09:41:24.512Z,99683.45
2019-04-28T09:44:23.101Z,99672.45
2019-04-28T09:46:50.872Z,99670.91
2019-04-28T09:49:19.637Z,99634.87
2019-04-28T09:51:47.472Z,99642.24
2019-04-28T09:54:16.632Z,99635.45
2019-04-28T09:56:56.013Z,99677.03
2019-04-28T09:59:14.951Z,99662.94
2019-04-28T10:01:42.968Z,99633.27
2019-04-28T10:04:12.843Z,99644.16
2019-04-28T10:06:40.966Z,99650.81
2019-04-28T10:09:09.723Z,99652.59
2019-04-28T10:11:37.948Z,99667.48
2019-04-28T10:14:06.311Z,99636.69
2019-04-28T10:19:19.481Z,99632.23
2019-04-28T10:21:57.462Z,99628.08
2019-04-28T10:24:25.370Z,99633.15
2019-04-28T10:26:53.184Z,99652.64
2019-04-28T10:29:21.823Z,99637.50
2019-04-28T10:31:49.804Z,99632.94
2019-04-28T10:34:18.264Z,99632.71
2019-04-28T10:36:46.157Z,99626.89
2019-04-28T10:39:28.021Z,99629.20
2019-04-28T10:42:06.435Z,99630.30
2019-04-28T10:44:37.789Z,99624.34
2019-04-28T10:47:07.131Z,99605.81
2019-04-28T10:49:34.921Z,99614.50
2019-04-28T10:52:13.487Z,99615.36
2019-04-28T10:54:41.467Z,99616.24
2019-04-28T10:57:09.272Z,99632.59
2019-04-28T10:59:37.058Z,99619.59
2019-04-28T11:02:05.680Z,99619.37
2019-04-28T11:04:42.953Z,99620.17
2019-04-28T11:07:11.989Z,99602.94
2019-04-28T11:09:45.450Z,99614.19
2019-04-28T11:12:19.275Z,99614.13
2019-04-28T11:15:11.010Z,99617.98
2019-04-28T11:17:39.595Z,99622.28
2019-04-28T11:20:09.436Z,99621.38
2019-04-28T11:22:37.609Z,99627.37
2019-04-28T11:25:06.300Z,99607.64
2019-04-28T11:27:35.336Z,99614.65
2019-04-28T11:30:03.774Z,99612.89
2019-04-28T11:32:31.680Z,99620.62
2019-04-28T11:35:21.683Z,99624.25
2019-04-28T11:37:49.168Z,99631.86
2019-04-28T11:40:17.025Z,99628.14
2019-04-28T11:42:44.791Z,99630.77
2019-04-28T11:45:13.146Z,99625.77
2019-04-28T11:47:41.116Z,99618.07
2019-04-28T11:50:09.166Z,99623.55
2019-04-28T11:52:42.029Z,99615.88
2019-04-28T11:55:10.057Z,99600.30
2019-04-28T11:57:37.889Z,99600.53
2019-04-28T12:00:18.597Z,99612.63
2019-04-28T12:02:46.481Z,99616.73
2019-04-28T12:05:14.382Z,99614.66
2019-04-28T12:07:42.165Z,99620.03
2019-04-28T12:10:15.017Z,99632.22
2019-04-28T12:13:02.382Z,99631.13
2019-04-28T12:15:52.035Z,99634.87
2019-04-28T12:18:45.453Z,99637.47
2019-04-28T12:21:13.360Z,99635.34
2019-04-28T12:23:41.281Z,99632.34
2019-04-28T12:26:09.058Z,99629.55
2019-04-28T12:28:52.766Z,99624.42
2019-04-28T12:31:20.579Z,99622.00
2019-04-28T12:34:19.250Z,99620.36
2019-04-28T12:36:47.708Z,99611.28
2019-04-28T12:39:16.007Z,99620.05
2019-04-28T12:41:44.760Z,99615.06
2019-04-28T12:44:24.766Z,99618.84
2019-04-28T12:46:54.042Z,99613.21
2019-04-28T12:49:27.316Z,99609.02
2019-04-28T12:51:55.393Z,99610.13
2019-04-28T12:54:25.982Z,99605.72
2019-04-28T12:56:54.044Z,99609.27
2019-04-28T12:59:27.240Z,99600.16
2019-04-28T13:02:43.261Z,99607.46
2019-04-28T13:05:15.858Z,99605.34
2019-04-28T13:07:43.698Z,99605.30
2019-04-28T13:10:11.945Z,99610.55
2019-04-28T13:12:40.267Z,99600.23
2019-04-28T13:15:08.145Z,99600.05
2019-04-28T13:17:36.053Z,99594.30
2019-04-28T13:20:05.033Z,99595.00
2019-04-28T13:22:33.991Z,99596.88
2019-04-28T13:25:02.121Z,99595.77
2019-04-28T13:27:29.981Z,99595.57
2019-04-28T13:30:00.417Z,99598.64
2019-04-28T13:32:33.737Z,99590.06
2019-04-28T13:35:02.427Z,99585.10
2019-04-28T13:37:30.295Z,99584.25
2019-04-28T13:40:04.977Z,99583.73
2019-04-28T13:42:33.183Z,99584.09
2019-04-28T13:45:05.047Z,99586.69
2019-04-28T13:47:32.924Z,99572.45
2019-04-28T13:50:35.589Z,99596.89
2019-04-28T13:53:04.147Z,99588.38
2019-04-28T13:55:51.748Z,99570.22
2019-04-28T13:58:22.239Z,99559.91
2019-04-28T14:01:01.840Z,99555.11
2019-04-28T14:03:49.351Z,99563.09
2019-04-28T14:06:28.230Z,99560.16
2019-04-28T14:08:47.877Z,99557.72
2019-04-28T14:11:15.704Z,99555.03
2019-04-28T14:13:43.516Z,99567.53
2019-04-28T14:16:14.175Z,99562.91
2019-04-28T14:18:41.963Z,99558.09
2019-04-28T14:21:09.803Z,99556.19
2019-04-28T14:23:37.674Z,99556.12
2019-04-28T14:26:05.376Z,99547.36
2019-04-28T14:28:33.214Z,99548.85
2019-04-28T14:31:00.975Z,99552.84
2019-04-28T14:33:28.788Z,99552.52
2019-04-28T14:35:56.503Z,99556.25
2019-04-28T14:38:24.629Z,99558.27
2019-04-28T14:40:52.744Z,99564.33
2019-04-28T14:43:20.665Z,99565.86
2019-04-28T14:45:48.439Z,99570.05
2019-04-28T14:48:16.185Z,99570.02
2019-04-28T14:50:44.553Z,99568.56
2019-04-28T14:53:14.209Z,99571.96
2019-04-28T14:55:42.012Z,99566.83
2019-04-28T14:58:10.033Z,99565.48
2019-04-28T15:00:43.040Z,99569.95
2019-04-28T15:03:16.815Z,99569.02
2019-04-28T15:06:00.061Z,99569.94
2019-04-28T15:08:45.820Z,99561.28
2019-04-28T15:11:32.131Z,99551.95
2019-04-28T15:14:00.031Z,99563.34
2019-04-28T15:16:27.921Z,99561.27
2019-04-28T15:18:55.648Z,99569.00
2019-04-28T15:21:23.428Z,99562.55
2019-04-28T15:23:51.490Z,99572.28
2019-04-28T15:26:19.263Z,99568.56
2019-04-28T15:28:47.027Z,99574.09
2019-04-28T15:31:14.823Z,99570.00
2019-04-28T15:33:47.687Z,99575.14
2019-04-28T15:36:15.572Z,99572.95
2019-04-28T15:38:43.373Z,99577.27
2019-04-28T15:41:21.322Z,99572.95
2019-04-28T15:43:40.896Z,99575.09
2019-04-28T15:46:10.257Z,99579.06
2019-04-28T15:48:38.012Z,99581.30
2019-04-28T15:51:05.920Z,99586.75
2019-04-28T15:54:13.855Z,99588.19
2019-04-28T15:56:47.483Z,99593.77
2019-04-28T15:59:15.476Z,99596.94
2019-04-28T16:01:43.625Z,99601.34
2019-04-28T16:04:12.246Z,99600.29
2019-04-28T16:06:41.003Z,99597.87
2019-04-28T16:09:11.969Z,99599.23
2019-04-28T16:11:41.371Z,99595.91
2019-04-28T16:14:09.162Z,99595.70
2019-04-28T16:16:36.960Z,99597.38
2019-04-28T16:19:04.770Z,99598.83
2019-04-28T16:21:32.539Z,99595.23
2019-04-28T16:24:00.340Z,99597.19
2019-04-28T16:26:28.074Z,99593.88
2019-04-28T16:28:55.874Z,99596.35
2019-04-28T16:31:23.632Z,99602.08
2019-04-28T16:33:52.239Z,99591.33
2019-04-28T16:36:20.034Z,99592.42
2019-04-28T16:38:47.810Z,99592.68
2019-04-28T16:41:30.057Z,99593.84
2019-04-28T16:44:02.493Z,99600.36
2019-04-28T16:46:30.356Z,99597.39
2019-04-28T16:48:59.321Z,99594.97
2019-04-28T16:51:27.442Z,99599.28
2019-04-28T16:53:57.275Z,99601.74
2019-04-28T16:56:43.524Z,99608.18
2019-04-28T16:59:36.256Z,99612.80
2019-04-28T17:02:23.189Z,99616.43
2019-04-28T17:04:51.038Z,99615.86
2019-04-28T17:07:18.830Z,99616.94
2019-04-28T17:09:46.593Z,99619.70
2019-04-28T17:12:14.667Z,99622.75
2019-04-28T17:14:42.736Z,99624.75
2019-04-28T17:17:11.489Z,99621.27
2019-04-28T17:19:40.119Z,99628.11
2019-04-28T17:22:08.059Z,99632.28
2019-04-28T17:24:35.900Z,99633.08
2019-04-28T17:27:03.920Z,99639.95
2019-04-28T17:29:31.744Z,99648.13
2019-04-28T17:32:09.596Z,99653.66
2019-04-28T17:34:37.510Z,99652.22
2019-04-28T17:37:07.163Z,99657.80
2019-04-28T17:39:35.553Z,99656.97
2019-04-28T17:42:04.117Z,99662.39
2019-04-28T17:44:32.076Z,99666.83
2019-04-28T17:47:00.176Z,99670.72
2019-04-28T17:49:33.183Z,99672.34
2019-04-28T17:52:01.305Z,99675.16
2019-04-28T17:54:29.133Z,99673.37
2019-04-28T17:56:58.205Z,99678.45
2019-04-28T17:59:26.048Z,99676.27
2019-04-28T18:02:16.786Z,99679.80
2019-04-28T18:05:00.463Z,99689.36
2019-04-28T18:07:31.231Z,99687.18
2019-04-28T18:09:59.040Z,99688.25
2019-04-28T18:12:28.907Z,99685.71
2019-04-28T18:15:02.772Z,99696.52
2019-04-28T18:17:49.574Z,99695.73
2019-04-28T18:20:17.433Z,99694.84
2019-04-28T18:22:45.198Z,99697.02
2019-04-28T18:25:13.410Z,99702.55
2019-04-28T18:27:41.206Z,99707.88
2019-04-28T18:30:10.185Z,99710.09
2019-04-28T18:33:00.490Z,99710.94
2019-04-28T18:35:54.075Z,99712.63
2019-04-28T18:38:34.823Z,99717.73
2019-04-28T18:41:23.507Z,99722.84
2019-04-28T18:44:15.627Z,99723.98
2019-04-28T18:46:43.582Z,99735.51
2019-04-28T18:49:11.675Z,99721.84
2019-04-28T18:51:39.688Z,99741.60
2019-04-28T18:54:07.594Z,99749.14
2019-04-28T18:56:35.447Z,99755.69
2019-04-28T18:59:03.421Z,99762.42
2019-04-28T19:01:44.025Z,99761.92
2019-04-28T19:04:11.913Z,99766.45
2019-04-28T19:06:39.744Z,99774.31
2019-04-28T19:09:27.309Z,99774.75
2019-04-28T19:12:06.771Z,99780.23
2019-04-28T19:14:39.065Z,99782.47
2019-04-28T19:17:14.049Z,99791.12
2019-04-28T19:19:42.004Z,99792.55
2019-04-28T19:22:15.262Z,99795.11
2019-04-28T19:24:43.110Z,99795.75
2019-04-28T19:27:10.981Z,99804.72
2019-04-28T19:29:38.740Z,99803.08
2019-04-28T19:32:06.537Z,99807.31
2019-04-28T19:34:34.371Z,99809.26
2019-04-28T19:37:02.217Z,99813.81
2019-04-28T19:39:30.029Z,99817.69
2019-04-28T19:41:57.915Z,99819.42
2019-04-28T19:44:25.730Z,99819.70
2019-04-28T19:46:53.531Z,99826.69
2019-04-28T19:49:21.315Z,99828.95
2019-04-28T19:51:49.127Z,99828.85
2019-04-28T19:54:19.375Z,99827.67
2019-04-28T19:56:54.578Z,99832.66
2019-04-28T19:59:41.989Z,99831.13
2019-04-28T20:02:09.955Z,99837.74
2019-04-28T20:04:37.743Z,99833.05
2019-04-28T20:07:05.562Z,99839.02
2019-04-28T20:09:33.442Z,99844.04
2019-04-28T20:12:01.565Z,99847.89
2019-04-28T20:14:29.400Z,99850.13
2019-04-28T20:16:57.196Z,99848.91
2019-04-28T20:19:25.067Z,99850.02
2019-04-28T20:21:52.791Z,99850.80
2019-04-28T20:24:20.668Z,99853.16
2019-04-28T20:26:48.500Z,99862.58
2019-04-28T20:29:16.365Z,99862.68
2019-04-28T20:31:44.212Z,99857.55
2019-04-28T20:34:11.987Z,99865.83
2019-04-28T20:37:04.070Z,99870.72
2019-04-28T20:39:32.033Z,99863.53
2019-04-28T20:42:23.536Z,99866.13
2019-04-28T20:44:51.320Z,99871.91
2019-04-28T20:47:19.114Z,99874.96
2019-04-28T20:49:46.895Z,99873.28
2019-04-28T20:52:15.262Z,99875.50
2019-04-28T20:54:43.062Z,99882.42
2019-04-28T20:57:10.857Z,99882.01
2019-04-28T20:59:38.632Z,99881.59
2019-04-28T21:02:06.600Z,99883.31
2019-04-28T21:04:34.424Z,99884.31
2019-04-28T21:07:02.461Z,99884.41
2019-04-28T21:09:30.247Z,99884.81
2019-04-28T21:11:58.039Z,99886.41
2019-04-28T21:14:25.775Z,99890.94
2019-04-28T21:16:53.578Z,99887.80
2019-04-28T21:19:21.367Z,99886.78
2019-04-28T21:21:49.196Z,99889.35
2019-04-28T21:24:17.242Z,99894.05
2019-04-28T21:26:44.982Z,99891.70
2019-04-28T21:29:12.756Z,99897.23
2019-04-28T21:31:40.543Z,99893.24
2019-04-28T21:34:08.346Z,99897.09
2019-04-28T21:36:36.165Z,99900.22
2019-04-28T21:39:06.800Z,99898.81
2019-04-28T21:41:34.603Z,99901.78
2019-04-28T21:44:24.577Z,99903.84
2019-04-28T21:47:00.271Z,99912.91
2019-04-28T21:49:37.431Z,99912.36
2019-04-28T21:52:10.455Z,99918.09
2019-04-28T21:54:38.167Z,99916.23
2019-04-28T21:57:06.035Z,99918.52
2019-04-28T21:59:33.794Z,99917.22
2019-04-28T22:02:01.580Z,99923.46
2019-04-28T22:04:29.403Z,99922.34
2019-04-28T22:06:57.127Z,99923.95
2019-04-28T22:09:24.874Z,99930.80
2019-04-28T22:11:52.704Z,99935.05
2019-04-28T22:14:20.526Z,99934.95
2019-04-28T22:16:48.374Z,99937.30
2019-04-28T22:19:16.167Z,99941.22
2019-04-28T22:21:43.935Z,99937.48
2019-04-28T22:24:37.777Z,99932.67
2019-04-28T22:27:06.681Z,99937.41
2019-04-28T22:29:34.407Z,99941.93
2019-04-28T22:32:02.375Z,99939.34
2019-04-28T22:34:30.099Z,99940.63
2019-04-28T22:36:57.882Z,99939.51
2019-04-28T22:39:25.659Z,99940.58
2019-04-28T22:41:53.668Z,99942.66
2019-04-28T22:44:21.403Z,99946.09
2019-04-28T22:46:49.175Z,99944.05
2019-04-28T22:49:17.050Z,99950.02
2019-04-28T22:51:44.982Z,99952.72
2019-04-28T22:54:32.376Z,99953.64
2019-04-28T22:57:15.530Z,99956.08
2019-04-28T22:59:44.103Z,99955.35
2019-04-28T23:02:16.191Z,99962.61
2019-04-28T23:05:09.839Z,99962.47
2019-04-28T23:07:37.693Z,99963.13
2019-04-28T23:10:08.546Z,99962.89
2019-04-28T23:12:46.435Z,99965.64
2019-04-28T23:15:15.008Z,99964.78
2019-04-28T23:17:42.802Z,99966.58
2019-04-28T23:20:12.851Z,99968.82
2019-04-28T23:22:50.430Z,99969.84
2019-04-28T23:25:18.157Z,99970.42
2019-04-28T23:27:45.974Z,99971.64
2019-04-28T23:30:36.639Z,99969.67
2019-04-28T23:33:04.464Z,99969.33
2019-04-28T23:35:32.146Z,99973.86
2019-04-28T23:37:59.925Z,99976.92
2019-04-28T23:40:27.680Z,99973.95
2019-04-28T23:43:05.236Z,99972.68
2019-04-28T23:45:33.222Z,99971.17
2019-04-28T23:48:01.003Z,99962.50
2019-04-28T23:50:35.606Z,99963.52
2019-04-28T23:53:11.682Z,99964.08
2019-04-28T23:55:39.501Z,99968.53
2019-04-28T23:58:07.181Z,99966.62
